KGS Home Page Kansas Earthquake Database

Kansas Quakes From NOV-2020 to JAN-2021

Click on column heading to sort.
Save To File
Geophysics Index Page

52 records returned--50 displayed at a time.
View page: 1 || 2
Quake ID UTC Date and Time
Ascend. Desc.
Local Date and Time Latitude Longitude Map Magnitude
Ascend. Desc.
County Name
1001466347 2020-12-31 18:54:43 DEC-31-2020, 12:54:43 PM 37.693 -97.202 View Event 2.1 Sedgwick
1001466341 2020-12-31 04:52:42 DEC-30-2020, 10:52:42 PM 37.709 -97.208 View Event 2.6 Sedgwick
1001466339 2020-12-30 11:04:47 DEC-30-2020, 05:04:47 AM 37.70049 -97.21256 View Event 3.9 Sedgwick
1001466332 2020-12-29 23:57:30 DEC-29-2020, 05:57:30 PM 38.72442 -97.5745 View Event 2.6 Saline
1001466323 2020-12-28 10:19:54 DEC-28-2020, 04:19:54 AM 37.71082 -97.21077 View Event 2.7 Sedgwick
1001466318 2020-12-28 04:17:53 DEC-27-2020, 10:17:53 PM 38.97728 -99.09138 View Event 2.9 Ellis
1001466292 2020-12-23 09:42:29 DEC-23-2020, 03:42:29 AM 37.70523 -97.21127 View Event 2.1 Sedgwick
1001466270 2020-12-21 07:25:12 DEC-21-2020, 01:25:12 AM 37.31 -97.46115 View Event 2.1 Sumner
1001466268 2020-12-20 22:38:54 DEC-20-2020, 04:38:54 PM 37.31016 -97.46767 View Event 2.6 Sumner
1001466992 2020-12-20 21:20:04 DEC-20-2020, 03:20:04 PM 37.69843 -97.20468 View Event 2 Sedgwick
1001466255 2020-12-20 08:20:08 DEC-20-2020, 02:20:08 AM 37.70918 -97.21624 View Event 2.7 Sedgwick
1001466254 2020-12-20 02:39:46 DEC-19-2020, 08:39:46 PM 37.70803 -97.21288 View Event 3.2 Sedgwick
1001466253 2020-12-19 21:12:04 DEC-19-2020, 03:12:04 PM 37.70746 -97.21067 View Event 2.3 Sedgwick
1001466252 2020-12-19 19:18:21 DEC-19-2020, 01:18:21 PM 37.70602 -97.20633 View Event 2.7 Sedgwick
1001466251 2020-12-19 18:52:27 DEC-19-2020, 12:52:27 PM 37.71041 -97.21315 View Event 3.5 Sedgwick
1001466250 2020-12-19 18:47:58 DEC-19-2020, 12:47:58 PM 37.7114 -97.21683 View Event 3.8 Sedgwick
1001466249 2020-12-19 18:40:50 DEC-19-2020, 12:40:50 PM 37.71177 -97.22239 View Event 2.9 Sedgwick
1001466248 2020-12-19 17:42:07 DEC-19-2020, 11:42:07 AM 37.70881 -97.21644 View Event 2.9 Sedgwick
1001466228 2020-12-15 12:51:44 DEC-15-2020, 06:51:44 AM 38.96753 -99.09381 View Event 2.3 Ellis
1001466218 2020-12-13 17:26:50 DEC-13-2020, 11:26:50 AM 37.69926 -97.22346 View Event 2.2 Sedgwick
1001466208 2020-12-12 01:31:21 DEC-11-2020, 07:31:21 PM 37.69689 -97.20828 View Event 2 Sedgwick
1001466201 2020-12-11 08:59:34 DEC-11-2020, 02:59:34 AM 38.67171 -97.54089 View Event 2.3 Saline
1001466778 2020-12-10 21:31:53 DEC-10-2020, 03:31:53 PM 39.54303 -98.32757 View Event 2 Mitchell
1001466200 2020-12-10 13:36:20 DEC-10-2020, 07:36:20 AM 37.70181 -97.21542 View Event 2.6 Sedgwick
1001466194 2020-12-10 08:34:32 DEC-10-2020, 02:34:32 AM 37.70412 -97.22501 View Event 2.9 Sedgwick
1001466192 2020-12-09 14:59:23 DEC-09-2020, 08:59:23 AM 37.7061 -97.21225 View Event 2.5 Sedgwick
1001466185 2020-12-08 16:54:06 DEC-08-2020, 10:54:06 AM 37.7069 -97.22311 View Event 3.2 Sedgwick
1001466180 2020-12-07 16:55:48 DEC-07-2020, 10:55:48 AM 37.2987 -97.46452 View Event 2.4 Sumner
1001466171 2020-12-05 22:38:51 DEC-05-2020, 04:38:51 PM 37.044 -98.952 View Event 2.3 Barber
1001466753 2020-12-05 16:50:29 DEC-05-2020, 10:50:29 AM 38.96158 -99.09999 View Event 2.1 Ellis
1001466162 2020-12-03 23:22:16 DEC-03-2020, 05:22:16 PM 37.17854 -99.82329 View Event 2.2 Clark
1001466157 2020-12-02 17:26:29 DEC-02-2020, 11:26:29 AM 38.87805 -98.65025 View Event 2 Russell
1001466156 2020-12-02 13:14:16 DEC-02-2020, 07:14:16 AM 38.9158 -98.55434 View Event 2.2 Russell
1001466151 2020-12-01 19:41:46 DEC-01-2020, 01:41:46 PM 37.38441 -97.80873 View Event 2.2 Harper
1001466143 2020-11-30 15:11:30 NOV-30-2020, 09:11:30 AM 37.70388 -97.20805 View Event 2.3 Sedgwick
1001466719 2020-11-28 03:40:00 NOV-27-2020, 09:40:00 PM 38.71078 -97.01215 View Event 2 Dickinson
1001466126 2020-11-27 18:27:41 NOV-27-2020, 12:27:41 PM 37.71342 -97.21541 View Event 2.6 Sedgwick
1001466121 2020-11-26 22:27:43 NOV-26-2020, 04:27:43 PM 37.71281 -97.21338 View Event 2.7 Sedgwick
1001466119 2020-11-26 19:48:23 NOV-26-2020, 01:48:23 PM 37.068 -98.968 View Event 2 Barber
1001466701 2020-11-25 11:48:54 NOV-25-2020, 05:48:54 AM 39.24005 -99.44018 View Event 2 Rooks
1001466088 2020-11-22 02:54:26 NOV-21-2020, 08:54:26 PM 38.30879 -96.93734 View Event 2.3 Marion
1001466685 2020-11-21 16:44:42 NOV-21-2020, 10:44:42 AM 38.96816 -99.08517 View Event 2 Ellis
1001466073 2020-11-18 15:50:55 NOV-18-2020, 09:50:55 AM 38.69744 -97.51052 View Event 2.3 Saline
1001466675 2020-11-18 11:47:55 NOV-18-2020, 05:47:55 AM 38.64542 -97.46664 View Event 2 Saline
1001466061 2020-11-17 03:46:28 NOV-16-2020, 09:46:28 PM 38.71577 -97.02803 View Event 2 Dickinson
1001466049 2020-11-14 12:13:06 NOV-14-2020, 06:13:06 AM 37.227 -99.024 View Event 2.1 Comanche
1001466044 2020-11-14 00:55:50 NOV-13-2020, 06:55:50 PM 38.33632 -96.80311 View Event 2.3 Chase
1001466042 2020-11-13 21:41:04 NOV-13-2020, 03:41:04 PM 38.97764 -99.09824 View Event 2.3 Ellis
1001466031 2020-11-12 12:45:14 NOV-12-2020, 06:45:14 AM 37.65869 -98.03259 View Event 2 Kingman
1001465920 2020-11-05 02:26:56 NOV-04-2020, 08:26:56 PM 37.5052 -97.79705 View Event 2.4 Sedgwick
View page: 1 || 2

Kansas Geological Survey, Earthquake Database
Comments to webadmin@kgs.ku.edu
URL=http://www.kgs.ku.edu/Geophysics/Earthquakes/index.html
Earthquake Database Program Updated Jan. 25, 2019. Data added continuously.